createdAt,value
2016-09-29T00:00:30.050Z,1019.95
2016-09-29T00:01:11.483Z,1019.93
2016-09-29T00:01:51.405Z,1019.94
2016-09-29T00:02:32.088Z,1019.94
2016-09-29T00:03:12.743Z,1019.97
2016-09-29T00:03:53.475Z,1019.97
2016-09-29T00:04:34.142Z,1019.97
2016-09-29T00:05:14.826Z,1019.95
2016-09-29T00:05:55.543Z,1019.98
2016-09-29T00:06:36.245Z,1019.96
2016-09-29T00:07:16.960Z,1019.97
2016-09-29T00:07:57.639Z,1019.94
2016-09-29T00:08:38.309Z,1019.96
2016-09-29T00:09:19.633Z,1019.94
2016-09-29T00:10:00.279Z,1019.92
2016-09-29T00:10:40.942Z,1019.93
2016-09-29T00:11:21.656Z,1019.88
2016-09-29T00:12:02.385Z,1019.93
2016-09-29T00:12:43.033Z,1019.92
2016-09-29T00:13:23.752Z,1019.87
2016-09-29T00:14:04.413Z,1019.86
2016-09-29T00:14:45.141Z,1019.84
2016-09-29T00:15:25.817Z,1019.82
2016-09-29T00:16:06.508Z,1019.84
2016-09-29T00:16:47.204Z,1019.8
2016-09-29T00:17:27.897Z,1019.78
2016-09-29T00:18:08.560Z,1019.78
2016-09-29T00:18:49.259Z,1019.8
2016-09-29T00:19:29.979Z,1019.77
2016-09-29T00:20:10.666Z,1019.78
2016-09-29T00:20:51.349Z,1019.79
2016-09-29T00:21:32.067Z,1019.76
2016-09-29T00:22:12.785Z,1019.75
2016-09-29T00:22:53.434Z,1019.78
2016-09-29T00:23:34.117Z,1019.79
2016-09-29T00:24:14.760Z,1019.77
2016-09-29T00:24:55.468Z,1019.8
2016-09-29T00:25:36.101Z,1019.8
2016-09-29T00:26:16.806Z,1019.82
2016-09-29T00:26:57.515Z,1019.81
2016-09-29T00:27:38.182Z,1019.83
2016-09-29T00:28:18.884Z,1019.8
2016-09-29T00:28:59.580Z,1019.8
2016-09-29T00:29:40.211Z,1019.84
2016-09-29T00:30:20.928Z,1019.76
2016-09-29T00:31:01.622Z,1019.8
2016-09-29T00:31:42.287Z,1019.79
2016-09-29T00:32:22.972Z,1019.79
2016-09-29T00:33:03.690Z,1019.81
2016-09-29T00:33:44.375Z,1019.79
2016-09-29T00:34:25.051Z,1019.82
2016-09-29T00:35:05.740Z,1019.81
2016-09-29T00:35:46.469Z,1019.81
2016-09-29T00:36:27.115Z,1019.82
2016-09-29T00:37:07.833Z,1019.8
2016-09-29T00:37:48.528Z,1019.81
2016-09-29T00:38:29.179Z,1019.79
2016-09-29T00:39:09.865Z,1019.8
2016-09-29T00:39:50.596Z,1019.8
2016-09-29T00:40:31.277Z,1019.82
2016-09-29T00:41:11.995Z,1019.8
2016-09-29T00:41:52.694Z,1019.77
2016-09-29T00:42:33.299Z,1019.77
2016-09-29T00:43:14.005Z,1019.76
2016-09-29T00:43:54.647Z,1019.74
2016-09-29T00:44:35.334Z,1019.7
2016-09-29T00:45:15.998Z,1019.69
2016-09-29T00:45:56.642Z,1019.7
2016-09-29T00:46:37.330Z,1019.65
2016-09-29T00:47:18.027Z,1019.66
2016-09-29T00:47:58.679Z,1019.62
2016-09-29T00:48:39.383Z,1019.59
2016-09-29T00:49:20.060Z,1019.57
2016-09-29T00:50:00.739Z,1019.59
2016-09-29T00:50:41.419Z,1019.59
2016-09-29T00:51:22.109Z,1019.55
2016-09-29T00:52:02.748Z,1019.57
2016-09-29T00:52:43.447Z,1019.55
2016-09-29T00:53:24.148Z,1019.55
2016-09-29T00:54:04.914Z,1019.53
2016-09-29T00:54:45.573Z,1019.55
2016-09-29T00:55:26.314Z,1019.52
2016-09-29T00:56:06.985Z,1019.53
2016-09-29T00:56:47.657Z,1019.54
2016-09-29T00:57:28.345Z,1019.48
2016-09-29T00:58:09.034Z,1019.52
2016-09-29T00:58:49.668Z,1019.52
2016-09-29T00:59:30.385Z,1019.53
2016-09-29T01:00:11.085Z,1019.52
2016-09-29T01:00:51.736Z,1019.53
2016-09-29T01:01:32.401Z,1019.53
2016-09-29T01:02:13.082Z,1019.54
2016-09-29T01:02:53.756Z,1019.47
2016-09-29T01:03:34.428Z,1019.49
2016-09-29T01:04:15.166Z,1019.47
2016-09-29T01:04:55.853Z,1019.49
2016-09-29T01:05:36.481Z,1019.45
2016-09-29T01:06:17.234Z,1019.44
2016-09-29T01:06:57.913Z,1019.44
2016-09-29T01:07:38.581Z,1019.44
2016-09-29T01:08:19.282Z,1019.43
2016-09-29T01:08:59.988Z,1019.44
2016-09-29T01:09:40.651Z,1019.41
2016-09-29T01:10:21.357Z,1019.42
2016-09-29T01:11:01.985Z,1019.38
2016-09-29T01:11:42.681Z,1019.39
2016-09-29T01:12:23.325Z,1019.36
2016-09-29T01:13:03.998Z,1019.36
2016-09-29T01:13:44.680Z,1019.34
2016-09-29T01:14:25.373Z,1019.34
2016-09-29T01:15:06.029Z,1019.32
2016-09-29T01:15:46.719Z,1019.31
2016-09-29T01:16:27.390Z,1019.33
2016-09-29T01:17:08.087Z,1019.33
2016-09-29T01:17:48.754Z,1019.35
2016-09-29T01:18:29.431Z,1019.33
2016-09-29T01:19:10.100Z,1019.33
2016-09-29T01:19:50.741Z,1019.33
2016-09-29T01:20:31.452Z,1019.27
2016-09-29T01:21:12.133Z,1019.29
2016-09-29T01:21:52.809Z,1019.28
2016-09-29T01:22:33.475Z,1019.28
2016-09-29T01:23:14.154Z,1019.27
2016-09-29T01:23:54.844Z,1019.26
2016-09-29T01:24:35.496Z,1019.19
2016-09-29T01:25:16.175Z,1019.19
2016-09-29T01:25:56.885Z,1019.17
2016-09-29T01:26:37.513Z,1019.16
2016-09-29T01:27:18.148Z,1019.14
2016-09-29T01:27:58.848Z,1019.14
2016-09-29T01:28:39.531Z,1019.16
2016-09-29T01:29:20.192Z,1019.14
2016-09-29T01:30:00.848Z,1019.14
2016-09-29T01:30:41.558Z,1019.12
2016-09-29T01:31:22.266Z,1019.15
2016-09-29T01:32:02.953Z,1019.16
2016-09-29T01:32:43.686Z,1019.16
2016-09-29T01:33:24.295Z,1019.18
2016-09-29T01:34:05.030Z,1019.15
2016-09-29T01:34:45.733Z,1019.14
2016-09-29T01:35:26.401Z,1019.18
2016-09-29T01:36:07.075Z,1019.19
2016-09-29T01:36:47.743Z,1019.14
2016-09-29T01:37:28.445Z,1019.13
2016-09-29T01:38:09.122Z,1019.14
2016-09-29T01:38:49.787Z,1019.1
2016-09-29T01:39:30.457Z,1019.08
2016-09-29T01:40:11.156Z,1019.03
2016-09-29T01:40:51.844Z,1019.07
2016-09-29T01:41:33.123Z,1019.04
2016-09-29T01:42:13.842Z,1019.03
2016-09-29T01:42:54.483Z,1019
2016-09-29T01:43:35.168Z,1019.02
2016-09-29T01:44:15.881Z,1019.01
2016-09-29T01:44:56.597Z,1019.05
2016-09-29T01:45:37.255Z,1018.99
2016-09-29T01:46:17.981Z,1019.01
2016-09-29T01:46:58.670Z,1019.03
2016-09-29T01:47:39.346Z,1019.05
2016-09-29T01:48:20.042Z,1019.03
2016-09-29T01:49:00.725Z,1019.08
2016-09-29T01:49:41.434Z,1019.06
2016-09-29T01:50:22.114Z,1019.02
2016-09-29T01:51:02.779Z,1019
2016-09-29T01:51:43.450Z,1019.06
2016-09-29T01:52:24.102Z,1019.06
2016-09-29T01:53:04.785Z,1019.02
2016-09-29T01:53:45.490Z,1019.01
2016-09-29T01:54:26.211Z,1019.02
2016-09-29T01:55:06.874Z,1018.95
2016-09-29T01:55:47.578Z,1018.97
2016-09-29T01:56:28.264Z,1018.93
2016-09-29T01:57:08.973Z,1018.94
2016-09-29T01:57:49.625Z,1018.88
2016-09-29T01:58:30.333Z,1018.88
2016-09-29T01:59:11.019Z,1018.91
2016-09-29T01:59:51.674Z,1018.9
2016-09-29T02:00:32.349Z,1018.87
2016-09-29T02:01:13.001Z,1018.86
2016-09-29T02:01:53.700Z,1018.83
2016-09-29T02:02:34.401Z,1018.8
2016-09-29T02:03:15.049Z,1018.82
2016-09-29T02:03:55.740Z,1018.83
2016-09-29T02:04:36.429Z,1018.9
2016-09-29T02:05:17.134Z,1018.92
2016-09-29T02:05:57.812Z,1018.93
2016-09-29T02:06:38.490Z,1018.9
2016-09-29T02:07:19.218Z,1018.92
2016-09-29T02:07:59.933Z,1018.91
2016-09-29T02:08:40.619Z,1018.92
2016-09-29T02:09:21.313Z,1018.91
2016-09-29T02:10:01.983Z,1018.88
2016-09-29T02:10:42.699Z,1018.87
2016-09-29T02:11:23.394Z,1018.88
2016-09-29T02:12:04.033Z,1018.87
2016-09-29T02:12:44.724Z,1018.85
2016-09-29T02:13:25.436Z,1018.84
2016-09-29T02:14:06.134Z,1018.87
2016-09-29T02:14:46.828Z,1018.88
2016-09-29T02:15:27.559Z,1018.87
2016-09-29T02:16:08.275Z,1018.91
2016-09-29T02:16:48.963Z,1018.9
2016-09-29T02:17:29.693Z,1018.9
2016-09-29T02:18:10.334Z,1018.89
2016-09-29T02:18:51.030Z,1018.9
2016-09-29T02:19:31.741Z,1018.85
2016-09-29T02:20:12.404Z,1018.9
2016-09-29T02:20:53.108Z,1018.86
2016-09-29T02:21:33.775Z,1018.85
2016-09-29T02:22:14.477Z,1018.84
2016-09-29T02:22:55.176Z,1018.89
2016-09-29T02:23:35.857Z,1018.89
2016-09-29T02:24:16.522Z,1018.84
2016-09-29T02:24:57.236Z,1018.83
2016-09-29T02:25:37.906Z,1018.83
2016-09-29T02:26:18.605Z,1018.82
2016-09-29T02:26:59.269Z,1018.82
2016-09-29T02:27:39.947Z,1018.83
2016-09-29T02:28:20.673Z,1018.79
2016-09-29T02:29:01.358Z,1018.8
2016-09-29T02:29:42.004Z,1018.81
2016-09-29T02:30:22.682Z,1018.81
2016-09-29T02:31:03.370Z,1018.77
2016-09-29T02:31:44.068Z,1018.78
2016-09-29T02:32:24.695Z,1018.84
2016-09-29T02:33:05.452Z,1018.77
2016-09-29T02:33:46.083Z,1018.73
2016-09-29T02:34:26.811Z,1018.75
2016-09-29T02:35:07.483Z,1018.74
2016-09-29T02:35:48.117Z,1018.72
2016-09-29T02:36:28.825Z,1018.68
2016-09-29T02:37:09.482Z,1018.68
2016-09-29T02:37:50.142Z,1018.68
2016-09-29T02:38:30.777Z,1018.7
2016-09-29T02:39:11.467Z,1018.71
2016-09-29T02:39:52.143Z,1018.7
2016-09-29T02:40:32.835Z,1018.73
2016-09-29T02:41:13.468Z,1018.73
2016-09-29T02:41:54.240Z,1018.68
2016-09-29T02:42:34.943Z,1018.68
2016-09-29T02:43:15.585Z,1018.68
2016-09-29T02:43:56.305Z,1018.63
2016-09-29T02:44:36.984Z,1018.62
2016-09-29T02:45:17.685Z,1018.62
2016-09-29T02:45:58.400Z,1018.62
2016-09-29T02:46:39.044Z,1018.6
2016-09-29T02:47:19.712Z,1018.61
2016-09-29T02:48:00.375Z,1018.62
2016-09-29T02:48:41.071Z,1018.64
2016-09-29T02:49:21.815Z,1018.63
2016-09-29T02:50:02.495Z,1018.65
2016-09-29T02:50:43.141Z,1018.67
2016-09-29T02:51:23.844Z,1018.66
2016-09-29T02:52:05.127Z,1018.65
2016-09-29T02:52:45.824Z,1018.64
2016-09-29T02:53:26.514Z,1018.65
2016-09-29T02:54:07.194Z,1018.62
2016-09-29T02:54:47.848Z,1018.61
2016-09-29T02:55:28.507Z,1018.63
2016-09-29T02:56:09.180Z,1018.62
2016-09-29T02:56:49.925Z,1018.59
2016-09-29T02:57:30.584Z,1018.57
2016-09-29T02:58:11.306Z,1018.56
2016-09-29T02:58:51.992Z,1018.56
2016-09-29T02:59:32.674Z,1018.54
2016-09-29T03:00:13.368Z,1018.5
2016-09-29T03:00:54.036Z,1018.5
2016-09-29T03:01:34.725Z,1018.48
2016-09-29T03:02:15.423Z,1018.45
2016-09-29T03:02:56.149Z,1018.48
2016-09-29T03:03:36.845Z,1018.47
2016-09-29T03:04:17.542Z,1018.48
2016-09-29T03:04:58.217Z,1018.49
2016-09-29T03:05:38.935Z,1018.5
2016-09-29T03:06:19.617Z,1018.54
2016-09-29T03:07:00.293Z,1018.53
2016-09-29T03:07:40.987Z,1018.52
2016-09-29T03:08:21.698Z,1018.49
2016-09-29T03:09:02.370Z,1018.51
2016-09-29T03:09:43.054Z,1018.5
2016-09-29T03:10:23.786Z,1018.47
2016-09-29T03:11:04.440Z,1018.48
2016-09-29T03:11:45.103Z,1018.5
2016-09-29T03:12:25.788Z,1018.51
2016-09-29T03:13:06.465Z,1018.51
2016-09-29T03:13:47.156Z,1018.53
2016-09-29T03:14:27.865Z,1018.49
2016-09-29T03:15:08.547Z,1018.57
2016-09-29T03:15:49.220Z,1018.56
2016-09-29T03:16:29.907Z,1018.57
2016-09-29T03:17:10.630Z,1018.57
2016-09-29T03:17:51.315Z,1018.56
2016-09-29T03:18:31.999Z,1018.58
2016-09-29T03:19:12.715Z,1018.59
2016-09-29T03:19:53.428Z,1018.56
2016-09-29T03:20:34.146Z,1018.56
2016-09-29T03:21:14.862Z,1018.55
2016-09-29T03:21:55.528Z,1018.49
2016-09-29T03:22:36.234Z,1018.48
2016-09-29T03:23:16.976Z,1018.47
2016-09-29T03:23:57.673Z,1018.47
2016-09-29T03:24:38.365Z,1018.5
2016-09-29T03:25:19.040Z,1018.49
2016-09-29T03:25:59.764Z,1018.46
2016-09-29T03:26:40.442Z,1018.5
2016-09-29T03:27:21.114Z,1018.46
2016-09-29T03:28:01.844Z,1018.45
2016-09-29T03:28:42.504Z,1018.48
2016-09-29T03:29:23.174Z,1018.5
2016-09-29T03:30:03.890Z,1018.49
2016-09-29T03:30:44.587Z,1018.48
2016-09-29T03:31:25.263Z,1018.45
2016-09-29T03:32:05.932Z,1018.47
2016-09-29T03:32:46.640Z,1018.46
2016-09-29T03:33:27.322Z,1018.43
2016-09-29T03:34:08.017Z,1018.41
2016-09-29T03:34:48.719Z,1018.37
2016-09-29T03:35:29.445Z,1018.36
2016-09-29T03:36:10.159Z,1018.38
2016-09-29T03:36:50.794Z,1018.33
2016-09-29T03:37:31.484Z,1018.33
2016-09-29T03:38:12.194Z,1018.32
2016-09-29T03:38:52.836Z,1018.3
2016-09-29T03:39:33.505Z,1018.3
2016-09-29T03:40:14.189Z,1018.32
2016-09-29T03:40:54.892Z,1018.31
2016-09-29T03:41:35.581Z,1018.3
2016-09-29T03:42:16.287Z,1018.28
2016-09-29T03:42:56.927Z,1018.33
2016-09-29T03:43:37.603Z,1018.31
2016-09-29T03:44:18.317Z,1018.32
2016-09-29T03:44:58.999Z,1018.3
2016-09-29T03:45:39.712Z,1018.3
2016-09-29T03:46:20.407Z,1018.28
2016-09-29T03:47:01.036Z,1018.28
2016-09-29T03:47:41.736Z,1018.28
2016-09-29T03:48:22.453Z,1018.25
2016-09-29T03:49:03.731Z,1018.26
2016-09-29T03:49:44.414Z,1018.26
2016-09-29T03:50:25.121Z,1018.29
2016-09-29T03:51:05.781Z,1018.3
2016-09-29T03:51:46.454Z,1018.29
2016-09-29T03:52:27.143Z,1018.26
2016-09-29T03:53:07.846Z,1018.28
2016-09-29T03:53:48.513Z,1018.26
2016-09-29T03:54:29.212Z,1018.27
2016-09-29T03:55:09.859Z,1018.24
2016-09-29T03:55:50.517Z,1018.23
2016-09-29T03:56:31.189Z,1018.26
2016-09-29T03:57:11.820Z,1018.23
2016-09-29T03:57:52.532Z,1018.2
2016-09-29T03:58:33.223Z,1018.27
2016-09-29T03:59:13.901Z,1018.29
2016-09-29T03:59:54.593Z,1018.27
2016-09-29T04:00:35.246Z,1018.2
2016-09-29T04:01:15.979Z,1018.22
2016-09-29T04:01:56.653Z,1018.19
2016-09-29T04:02:37.333Z,1018.22
2016-09-29T04:03:18.020Z,1018.2
2016-09-29T04:03:58.731Z,1018.21
2016-09-29T04:04:39.408Z,1018.2
2016-09-29T04:05:20.105Z,1018.21
2016-09-29T04:06:00.801Z,1018.21
2016-09-29T04:06:41.504Z,1018.23
2016-09-29T04:07:22.177Z,1018.23
2016-09-29T04:08:02.853Z,1018.2
2016-09-29T04:08:43.522Z,1018.17
2016-09-29T04:09:24.206Z,1018.22
2016-09-29T04:10:04.876Z,1018.19
2016-09-29T04:10:45.518Z,1018.2
2016-09-29T04:11:26.200Z,1018.21
2016-09-29T04:12:06.884Z,1018.22
2016-09-29T04:12:47.567Z,1018.2
2016-09-29T04:13:28.251Z,1018.21
2016-09-29T04:14:08.937Z,1018.19
2016-09-29T04:14:49.608Z,1018.17
2016-09-29T04:15:30.294Z,1018.17
2016-09-29T04:16:10.989Z,1018.16
2016-09-29T04:16:51.702Z,1018.17
2016-09-29T04:17:32.402Z,1018.16
2016-09-29T04:18:13.072Z,1018.19
2016-09-29T04:18:53.754Z,1018.19
2016-09-29T04:19:34.431Z,1018.21
2016-09-29T04:20:15.150Z,1018.19
2016-09-29T04:20:55.832Z,1018.21
2016-09-29T04:21:36.606Z,1018.21
2016-09-29T04:22:17.333Z,1018.19
2016-09-29T04:22:57.952Z,1018.19
2016-09-29T04:23:38.674Z,1018.21
2016-09-29T04:24:19.317Z,1018.18
2016-09-29T04:24:59.991Z,1018.22
2016-09-29T04:25:40.674Z,1018.17
2016-09-29T04:26:21.372Z,1018.21
2016-09-29T04:27:02.129Z,1018.2
2016-09-29T04:27:42.794Z,1018.16
2016-09-29T04:28:23.494Z,1018.16
2016-09-29T04:29:04.169Z,1018.16
2016-09-29T04:29:44.836Z,1018.15
2016-09-29T04:30:25.492Z,1018.14
2016-09-29T04:31:06.163Z,1018.14
2016-09-29T04:31:46.869Z,1018.17
2016-09-29T04:32:27.541Z,1018.16
2016-09-29T04:33:08.187Z,1018.17
2016-09-29T04:33:48.898Z,1018.16
2016-09-29T04:34:29.601Z,1018.18
2016-09-29T04:35:10.285Z,1018.18
2016-09-29T04:35:50.969Z,1018.14
2016-09-29T04:36:31.675Z,1018.18
2016-09-29T04:37:12.374Z,1018.16
2016-09-29T04:37:53.025Z,1018.14
2016-09-29T04:38:33.708Z,1018.17
2016-09-29T04:39:14.403Z,1018.16
2016-09-29T04:39:55.128Z,1018.16
2016-09-29T04:40:35.838Z,1018.17
2016-09-29T04:41:16.556Z,1018.16
2016-09-29T04:41:57.235Z,1018.16
2016-09-29T04:42:37.900Z,1018.14
2016-09-29T04:43:18.577Z,1018.15
2016-09-29T04:43:59.250Z,1018.14
2016-09-29T04:44:39.936Z,1018.12
2016-09-29T04:45:20.629Z,1018.14
2016-09-29T04:46:01.328Z,1018.14
2016-09-29T04:46:42.027Z,1018.14
2016-09-29T04:47:22.729Z,1018.14
2016-09-29T04:48:03.406Z,1018.16
2016-09-29T04:48:44.054Z,1018.14
2016-09-29T04:49:24.713Z,1018.16
2016-09-29T04:50:05.438Z,1018.16
2016-09-29T04:50:46.139Z,1018.09
2016-09-29T04:51:26.837Z,1018.1
2016-09-29T04:52:07.500Z,1018.13
2016-09-29T04:52:48.179Z,1018.16
2016-09-29T04:53:28.923Z,1018.14
2016-09-29T04:54:09.616Z,1018.17
2016-09-29T04:54:50.308Z,1018.17
2016-09-29T04:55:30.981Z,1018.18
2016-09-29T04:56:11.657Z,1018.18
2016-09-29T04:56:52.319Z,1018.17
2016-09-29T04:57:33.046Z,1018.16
2016-09-29T04:58:13.746Z,1018.18
2016-09-29T04:58:54.450Z,1018.19
2016-09-29T04:59:35.164Z,1018.2
2016-09-29T05:00:15.836Z,1018.2
2016-09-29T05:00:56.536Z,1018.23
2016-09-29T05:01:37.200Z,1018.17
2016-09-29T05:02:17.873Z,1018.14
2016-09-29T05:02:58.554Z,1018.15
2016-09-29T05:03:39.221Z,1018.21
2016-09-29T05:04:19.899Z,1018.14
2016-09-29T05:05:00.543Z,1018.12
2016-09-29T05:05:41.220Z,1018.14
2016-09-29T05:06:21.893Z,1018.12
2016-09-29T05:07:02.611Z,1018.14
2016-09-29T05:07:43.288Z,1018.08
2016-09-29T05:08:23.952Z,1018.09
2016-09-29T05:09:04.633Z,1018.11
2016-09-29T05:09:45.332Z,1018.09
2016-09-29T05:10:25.986Z,1018.12
2016-09-29T05:11:06.650Z,1018.1
2016-09-29T05:11:47.317Z,1018.1
2016-09-29T05:12:27.975Z,1018.09
2016-09-29T05:13:08.684Z,1018.09
2016-09-29T05:13:49.313Z,1018.1
2016-09-29T05:14:29.931Z,1018.06
2016-09-29T05:15:10.639Z,1018.06
2016-09-29T05:15:51.349Z,1018.06
2016-09-29T05:16:32.032Z,1018.02
2016-09-29T05:17:12.683Z,1018.04
2016-09-29T05:17:53.330Z,1018.01
2016-09-29T05:18:34.020Z,1018
2016-09-29T05:19:14.702Z,1017.99
2016-09-29T05:19:55.379Z,1018
2016-09-29T05:20:36.091Z,1017.98
2016-09-29T05:21:16.749Z,1018.02
2016-09-29T05:21:57.422Z,1017.97
2016-09-29T05:22:38.152Z,1018.04
2016-09-29T05:23:18.894Z,1018.04
2016-09-29T05:23:59.605Z,1018.03
2016-09-29T05:24:40.288Z,1018.01
2016-09-29T05:25:20.990Z,1018.03
2016-09-29T05:26:01.628Z,1018.01
2016-09-29T05:26:42.273Z,1017.99
2016-09-29T05:27:22.953Z,1017.98
2016-09-29T05:28:03.613Z,1017.97
2016-09-29T05:28:44.286Z,1017.98
2016-09-29T05:29:24.955Z,1017.97
2016-09-29T05:30:05.635Z,1017.96
2016-09-29T05:30:46.344Z,1017.98
2016-09-29T05:31:26.995Z,1017.96
2016-09-29T05:32:07.701Z,1017.98
2016-09-29T05:32:48.395Z,1018.01
2016-09-29T05:33:29.057Z,1018.01
2016-09-29T05:34:09.758Z,1018.02
2016-09-29T05:34:50.435Z,1018.05
2016-09-29T05:35:31.132Z,1018.03
2016-09-29T05:36:11.785Z,1018.05
2016-09-29T05:36:52.498Z,1018.04
2016-09-29T05:37:33.225Z,1018.03
2016-09-29T05:38:13.926Z,1018.01
2016-09-29T05:38:54.582Z,1018.02
2016-09-29T05:39:35.218Z,1018.04
2016-09-29T05:40:15.955Z,1018.06
2016-09-29T05:40:56.629Z,1018.03
2016-09-29T05:41:37.323Z,1018.08
2016-09-29T05:42:18.016Z,1018.04
2016-09-29T05:42:58.706Z,1018.05
2016-09-29T05:43:39.410Z,1018.02
2016-09-29T05:44:20.115Z,1018.03
2016-09-29T05:45:00.828Z,1018.06
2016-09-29T05:45:41.477Z,1018.11
2016-09-29T05:46:22.185Z,1018.1
2016-09-29T05:47:02.870Z,1018.11
2016-09-29T05:47:43.567Z,1018.1
2016-09-29T05:48:24.210Z,1018.11
2016-09-29T05:49:04.913Z,1018.11
2016-09-29T05:49:45.571Z,1018.14
2016-09-29T05:50:26.307Z,1018.16
2016-09-29T05:51:07.008Z,1018.17
2016-09-29T05:51:47.720Z,1018.16
2016-09-29T05:52:28.390Z,1018.2
2016-09-29T05:53:09.148Z,1018.2
2016-09-29T05:53:49.838Z,1018.18
2016-09-29T05:54:30.471Z,1018.16
2016-09-29T05:55:11.172Z,1018.19
2016-09-29T05:55:51.924Z,1018.18
2016-09-29T05:56:32.637Z,1018.18
2016-09-29T05:57:13.355Z,1018.19
2016-09-29T05:57:54.074Z,1018.19
2016-09-29T05:58:34.786Z,1018.2
2016-09-29T05:59:15.545Z,1018.2
2016-09-29T05:59:56.249Z,1018.18
2016-09-29T06:00:37.006Z,1018.16
2016-09-29T06:01:17.714Z,1018.21
2016-09-29T06:01:58.587Z,1018.22
2016-09-29T06:02:39.293Z,1018.21
2016-09-29T06:03:19.992Z,1018.21
2016-09-29T06:04:00.716Z,1018.18
2016-09-29T06:04:41.390Z,1018.18
2016-09-29T06:05:22.757Z,1018.21
2016-09-29T06:06:03.507Z,1018.21
2016-09-29T06:06:44.183Z,1018.18
2016-09-29T06:07:24.862Z,1018.21
2016-09-29T06:08:05.554Z,1018.22
2016-09-29T06:08:46.229Z,1018.24
2016-09-29T06:09:26.938Z,1018.22
2016-09-29T06:10:07.647Z,1018.25
2016-09-29T06:10:48.342Z,1018.22
2016-09-29T06:11:29.004Z,1018.2
2016-09-29T06:12:09.681Z,1018.19
2016-09-29T06:12:50.387Z,1018.25
2016-09-29T06:13:31.053Z,1018.24
2016-09-29T06:14:11.818Z,1018.27
2016-09-29T06:14:52.499Z,1018.28
2016-09-29T06:15:33.214Z,1018.29
2016-09-29T06:16:13.871Z,1018.29
2016-09-29T06:16:54.539Z,1018.27
2016-09-29T06:17:35.220Z,1018.28
2016-09-29T06:18:15.918Z,1018.24
2016-09-29T06:18:56.627Z,1018.22
2016-09-29T06:19:37.317Z,1018.22
2016-09-29T06:20:18.024Z,1018.21
2016-09-29T06:20:58.701Z,1018.25
2016-09-29T06:21:39.408Z,1018.23
2016-09-29T06:22:20.108Z,1018.23
2016-09-29T06:23:00.819Z,1018.25
2016-09-29T06:23:41.571Z,1018.3
2016-09-29T06:24:22.263Z,1018.28
2016-09-29T06:25:02.986Z,1018.31
2016-09-29T06:25:43.663Z,1018.31
2016-09-29T06:26:24.350Z,1018.32
2016-09-29T06:27:05.045Z,1018.29
2016-09-29T06:27:45.749Z,1018.29
2016-09-29T06:28:26.451Z,1018.29
2016-09-29T06:29:07.145Z,1018.3
2016-09-29T06:29:47.817Z,1018.26
2016-09-29T06:30:28.510Z,1018.29
2016-09-29T06:31:09.190Z,1018.29
2016-09-29T06:31:49.883Z,1018.3
2016-09-29T06:32:30.552Z,1018.3
2016-09-29T06:33:11.239Z,1018.34
2016-09-29T06:33:51.980Z,1018.35
2016-09-29T06:34:32.787Z,1018.34
2016-09-29T06:35:13.444Z,1018.34
2016-09-29T06:35:54.169Z,1018.34
2016-09-29T06:36:34.823Z,1018.36
2016-09-29T06:37:15.563Z,1018.35
2016-09-29T06:37:56.222Z,1018.33
2016-09-29T06:38:36.911Z,1018.36
2016-09-29T06:39:17.591Z,1018.39
2016-09-29T06:39:58.338Z,1018.41
2016-09-29T06:40:39.019Z,1018.38
2016-09-29T06:41:19.763Z,1018.38
2016-09-29T06:42:00.427Z,1018.37
2016-09-29T06:42:41.160Z,1018.4
2016-09-29T06:43:21.865Z,1018.43
2016-09-29T06:44:02.609Z,1018.42
2016-09-29T06:44:43.277Z,1018.44
2016-09-29T06:45:24.022Z,1018.43
2016-09-29T06:46:04.697Z,1018.43
2016-09-29T06:46:45.427Z,1018.46
2016-09-29T06:47:26.115Z,1018.5
2016-09-29T06:48:06.789Z,1018.46
2016-09-29T06:48:47.501Z,1018.44
2016-09-29T06:49:28.146Z,1018.45
2016-09-29T06:50:08.817Z,1018.42
2016-09-29T06:50:49.550Z,1018.43
2016-09-29T06:51:30.235Z,1018.48
2016-09-29T06:52:10.947Z,1018.46
2016-09-29T06:52:51.672Z,1018.44
2016-09-29T06:53:32.318Z,1018.47
2016-09-29T06:54:13.008Z,1018.47
2016-09-29T06:54:53.680Z,1018.49
2016-09-29T06:55:34.336Z,1018.47
2016-09-29T06:56:15.036Z,1018.49
2016-09-29T06:56:55.689Z,1018.5
2016-09-29T06:57:36.375Z,1018.49
2016-09-29T06:58:17.082Z,1018.47
2016-09-29T06:58:57.777Z,1018.48
2016-09-29T06:59:38.464Z,1018.5
2016-09-29T07:00:19.175Z,1018.49
2016-09-29T07:00:59.855Z,1018.5
2016-09-29T07:01:40.585Z,1018.52
2016-09-29T07:02:21.379Z,1018.51
2016-09-29T07:03:02.084Z,1018.46
2016-09-29T07:03:43.344Z,1018.52
2016-09-29T07:04:24.031Z,1018.53
2016-09-29T07:05:05.203Z,1018.54
2016-09-29T07:05:45.366Z,1018.49
2016-09-29T07:06:26.032Z,1018.52
2016-09-29T07:07:06.754Z,1018.53
2016-09-29T07:07:47.415Z,1018.54
2016-09-29T07:08:28.106Z,1018.55
2016-09-29T07:09:08.795Z,1018.53
2016-09-29T07:09:49.499Z,1018.58
2016-09-29T07:10:30.192Z,1018.53
2016-09-29T07:11:10.857Z,1018.54
2016-09-29T07:11:51.537Z,1018.54
2016-09-29T07:12:32.224Z,1018.54
2016-09-29T07:13:12.895Z,1018.51
2016-09-29T07:13:53.616Z,1018.53
2016-09-29T07:14:34.300Z,1018.54
2016-09-29T07:15:15.019Z,1018.53
2016-09-29T07:15:55.667Z,1018.52
2016-09-29T07:16:36.335Z,1018.56
2016-09-29T07:17:17.036Z,1018.53
2016-09-29T07:17:57.705Z,1018.52
2016-09-29T07:18:38.460Z,1018.52
2016-09-29T07:19:19.150Z,1018.49
2016-09-29T07:19:59.884Z,1018.51
2016-09-29T07:20:40.613Z,1018.52
2016-09-29T07:21:21.279Z,1018.52
2016-09-29T07:22:02.013Z,1018.49
2016-09-29T07:22:42.713Z,1018.53
2016-09-29T07:23:23.381Z,1018.54
2016-09-29T07:24:04.083Z,1018.52
2016-09-29T07:24:44.787Z,1018.56
2016-09-29T07:25:25.418Z,1018.56
2016-09-29T07:26:06.101Z,1018.58
2016-09-29T07:26:46.793Z,1018.56
2016-09-29T07:27:27.485Z,1018.57
2016-09-29T07:28:08.204Z,1018.57
2016-09-29T07:28:48.890Z,1018.54
2016-09-29T07:29:29.559Z,1018.54
2016-09-29T07:30:10.247Z,1018.56
2016-09-29T07:30:50.984Z,1018.56
2016-09-29T07:31:32.666Z,1018.54
2016-09-29T07:32:13.368Z,1018.56
2016-09-29T07:32:54.101Z,1018.56
2016-09-29T07:33:34.789Z,1018.54
2016-09-29T07:34:15.482Z,1018.55
2016-09-29T07:34:56.217Z,1018.5
2016-09-29T07:35:36.937Z,1018.5
2016-09-29T07:36:17.611Z,1018.52
2016-09-29T07:36:58.296Z,1018.48
2016-09-29T07:37:38.969Z,1018.49
2016-09-29T07:38:19.624Z,1018.46
2016-09-29T07:39:00.358Z,1018.47
2016-09-29T07:39:41.093Z,1018.45
2016-09-29T07:40:21.750Z,1018.43
2016-09-29T07:41:03.222Z,1018.43
2016-09-29T07:41:43.138Z,1018.44
2016-09-29T07:42:23.784Z,1018.44
2016-09-29T07:43:04.488Z,1018.46
2016-09-29T07:43:45.223Z,1018.43
2016-09-29T07:44:25.911Z,1018.48
2016-09-29T07:45:06.609Z,1018.45
2016-09-29T07:45:47.282Z,1018.48
2016-09-29T07:46:28.002Z,1018.41
2016-09-29T07:47:08.684Z,1018.43
2016-09-29T07:47:49.392Z,1018.45
2016-09-29T07:48:30.084Z,1018.43
2016-09-29T07:49:10.753Z,1018.43
2016-09-29T07:49:51.439Z,1018.47
2016-09-29T07:50:32.129Z,1018.47
2016-09-29T07:51:12.772Z,1018.47
2016-09-29T07:51:53.480Z,1018.48
2016-09-29T07:52:34.104Z,1018.48
2016-09-29T07:53:14.871Z,1018.49
2016-09-29T07:53:55.833Z,1018.5
2016-09-29T07:54:36.555Z,1018.49
2016-09-29T07:55:17.263Z,1018.5
2016-09-29T07:55:57.977Z,1018.48
2016-09-29T07:56:38.690Z,1018.48
2016-09-29T07:57:19.385Z,1018.46
2016-09-29T07:58:00.043Z,1018.47
2016-09-29T07:58:40.754Z,1018.48
2016-09-29T07:59:21.416Z,1018.48
2016-09-29T08:00:02.112Z,1018.48
2016-09-29T08:00:42.816Z,1018.5
2016-09-29T08:01:23.479Z,1018.46
2016-09-29T08:02:04.185Z,1018.47
2016-09-29T08:02:44.908Z,1018.52
2016-09-29T08:03:25.623Z,1018.47
2016-09-29T08:04:06.366Z,1018.48
2016-09-29T08:04:47.099Z,1018.49
2016-09-29T08:05:27.883Z,1018.51
2016-09-29T08:06:08.597Z,1018.48
2016-09-29T08:06:49.311Z,1018.52
2016-09-29T08:07:30.040Z,1018.52
2016-09-29T08:08:10.757Z,1018.51
2016-09-29T08:08:51.526Z,1018.54
2016-09-29T08:09:32.204Z,1018.54
2016-09-29T08:10:12.943Z,1018.56
2016-09-29T08:10:53.670Z,1018.52
2016-09-29T08:11:34.359Z,1018.5
2016-09-29T08:12:15.030Z,1018.58
2016-09-29T08:12:55.732Z,1018.52
2016-09-29T08:13:36.467Z,1018.52
2016-09-29T08:14:17.110Z,1018.51